Rina Amoretti — IBRR — position and weather

sailwx.info

Track history (hours):
 
Tides and Currents Weather Stations Pressure Air Temp Water Temp Dewpoint Dewpoint Depression Visibility Wind Speed Wind Dir Waves Ship Positions

Rina Amoretti

Last reported at 2014-Oct-21 05:10 UTC. Time now 2014-Oct-23 05:49 UTC.
Position N 38°03' E 015°33'.

Length 120 m; draft 6.5 m.

Type: Tanker. MMSI: 247197000.

Date/timePositionNaut miles runAvg speedWind from/ knotsBaromVisibWave heightAir tempDewpointWater temp
2014-Oct-21 05:10N 38°03' E 015°33'6210.1
2014-Oct-20 23:05N 38°13' E 014°16'813.9
2014-Oct-20 22:31N 38°12' E 014°06'1314.0
2014-Oct-20 21:33N 38°11' E 013°49'1413.7
2014-Oct-20 20:33N 38°09' E 013°32'5 5.2
2014-Oct-20 19:31N 38°06' E 013°26'0 0.0
2014-Oct-20 18:31N 38°06' E 013°26'0 0.0
2014-Oct-20 17:31N 38°06' E 013°26'0 0.0
2014-Oct-20 16:28N 38°06' E 013°26'0 0.0
2014-Oct-20 15:31N 38°06' E 013°26'0 0.0
2014-Oct-20 14:31N 38°06' E 013°26'0 0.0
2014-Oct-20 13:31N 38°06' E 013°26'0 0.0
2014-Oct-20 12:31N 38°06' E 013°26'0 0.0
2014-Oct-20 11:31N 38°06' E 013°26'0 0.0
2014-Oct-20 10:31N 38°06' E 013°26'0 0.0
2014-Oct-20 09:31N 38°06' E 013°26'0 0.0
2014-Oct-20 08:31N 38°06' E 013°26'0 0.0
2014-Oct-20 07:34N 38°06' E 013°26'1 0.5
2014-Oct-20 06:33N 38°06' E 013°27'1 1.1
2014-Oct-20 05:34N 38°07' E 013°27'0 0.2
2014-Oct-20 04:34N 38°07' E 013°27'3 3.0
2014-Oct-20 03:34N 38°09' E 013°30'1111.1
2014-Oct-20 02:34N 38°10' E 013°44'1211.6
2014-Oct-20 01:34N 38°12' E 013°59'1211.8
2014-Oct-20 00:32N 38°13' E 014°14'64 8.8
2014-Oct-19 17:13N 38°05' E 015°35'  
2014-Oct-13 18:31N 38°52' E 015°21'2913.6
2014-Oct-13 16:22N 39°18' E 015°03'7913.7
2014-Oct-13 10:33N 40°27' E 014°12'1313.0
2014-Oct-13 09:33N 40°40' E 014°13'1110.5
2014-Oct-13 08:32N 40°50' E 014°18'0 0.0
2014-Oct-13 07:20N 40°50' E 014°18'0 0.0
2014-Oct-13 06:31N 40°50' E 014°18'0 0.0
2014-Oct-13 05:28N 40°50' E 014°18'0 0.0
2014-Oct-13 04:31N 40°50' E 014°18'0 0.0
2014-Oct-13 03:28N 40°50' E 014°18'0 0.0
2014-Oct-13 02:31N 40°50' E 014°18'0 0.0
2014-Oct-13 01:31N 40°50' E 014°18'0 0.0
2014-Oct-13 00:31N 40°50' E 014°18'0 0.0
2014-Oct-12 22:22N 40°50' E 014°18'0 0.0
2014-Oct-12 21:28N 40°50' E 014°18'0 0.0
2014-Oct-12 20:31N 40°50' E 014°18'0 0.0
2014-Oct-12 19:25N 40°50' E 014°18'2 0.1
2014-Oct-12 00:33N 40°48' E 014°19'0 0.0
2014-Oct-11 22:18N 40°48' E 014°19'0 0.0
2014-Oct-11 21:33N 40°48' E 014°19'0 0.0
2014-Oct-11 20:29N 40°48' E 014°19'0 0.0
2014-Oct-11 16:32N 40°48' E 014°19'0 0.0
2014-Oct-11 15:29N 40°48' E 014°19'0 0.0
2014-Oct-11 13:05N 40°48' E 014°19'0 0.0
2014-Oct-11 12:29N 40°48' E 014°19'0 0.0
2014-Oct-11 11:29N 40°48' E 014°19'1 0.8
2014-Oct-11 10:33N 40°48' E 014°19'1412.3
2014-Oct-11 09:27N 40°36' E 014°10'1213.2
2014-Oct-11 08:34N 40°24' E 014°14'  
Track history (hours):
 
Tides and Currents Weather Stations Pressure Air Temp Water Temp Dewpoint Dewpoint Depression Visibility Wind Speed Wind Dir Waves Ship Positions

Rina Amoretti

Last reported at 2014-Oct-21 05:10 UTC. Time now 2014-Oct-23 05:49 UTC.
Position N 38°03' E 015°33'.

Length 120 m; draft 6.5 m.

Type: Tanker. MMSI: 247197000.

Date/timePositionNaut miles runAvg speedWind from/ knotsBaromVisibWave heightAir tempDewpointWater temp
2014-Oct-21 05:10N 38°03' E 015°33'6210.1
2014-Oct-20 23:05N 38°13' E 014°16'813.9
2014-Oct-20 22:31N 38°12' E 014°06'1314.0
2014-Oct-20 21:33N 38°11' E 013°49'1413.7
2014-Oct-20 20:33N 38°09' E 013°32'5 5.2
2014-Oct-20 19:31N 38°06' E 013°26'0 0.0
2014-Oct-20 18:31N 38°06' E 013°26'0 0.0
2014-Oct-20 17:31N 38°06' E 013°26'0 0.0
2014-Oct-20 16:28N 38°06' E 013°26'0 0.0
2014-Oct-20 15:31N 38°06' E 013°26'0 0.0
2014-Oct-20 14:31N 38°06' E 013°26'0 0.0
2014-Oct-20 13:31N 38°06' E 013°26'0 0.0
2014-Oct-20 12:31N 38°06' E 013°26'0 0.0
2014-Oct-20 11:31N 38°06' E 013°26'0 0.0
2014-Oct-20 10:31N 38°06' E 013°26'0 0.0
2014-Oct-20 09:31N 38°06' E 013°26'0 0.0
2014-Oct-20 08:31N 38°06' E 013°26'0 0.0
2014-Oct-20 07:34N 38°06' E 013°26'1 0.5
2014-Oct-20 06:33N 38°06' E 013°27'1 1.1
2014-Oct-20 05:34N 38°07' E 013°27'0 0.2
2014-Oct-20 04:34N 38°07' E 013°27'3 3.0
2014-Oct-20 03:34N 38°09' E 013°30'1111.1
2014-Oct-20 02:34N 38°10' E 013°44'1211.6
2014-Oct-20 01:34N 38°12' E 013°59'1211.8
2014-Oct-20 00:32N 38°13' E 014°14'64 8.8
2014-Oct-19 17:13N 38°05' E 015°35'  
2014-Oct-13 18:31N 38°52' E 015°21'2913.6
2014-Oct-13 16:22N 39°18' E 015°03'7913.7
2014-Oct-13 10:33N 40°27' E 014°12'1313.0
2014-Oct-13 09:33N 40°40' E 014°13'1110.5
2014-Oct-13 08:32N 40°50' E 014°18'0 0.0
2014-Oct-13 07:20N 40°50' E 014°18'0 0.0
2014-Oct-13 06:31N 40°50' E 014°18'0 0.0
2014-Oct-13 05:28N 40°50' E 014°18'0 0.0
2014-Oct-13 04:31N 40°50' E 014°18'0 0.0
2014-Oct-13 03:28N 40°50' E 014°18'0 0.0
2014-Oct-13 02:31N 40°50' E 014°18'0 0.0
2014-Oct-13 01:31N 40°50' E 014°18'0 0.0
2014-Oct-13 00:31N 40°50' E 014°18'0 0.0
2014-Oct-12 22:22N 40°50' E 014°18'0 0.0
2014-Oct-12 21:28N 40°50' E 014°18'0 0.0
2014-Oct-12 20:31N 40°50' E 014°18'0 0.0
2014-Oct-12 19:25N 40°50' E 014°18'2 0.1
2014-Oct-12 00:33N 40°48' E 014°19'0 0.0
2014-Oct-11 22:18N 40°48' E 014°19'0 0.0
2014-Oct-11 21:33N 40°48' E 014°19'0 0.0
2014-Oct-11 20:29N 40°48' E 014°19'0 0.0
2014-Oct-11 16:32N 40°48' E 014°19'0 0.0
2014-Oct-11 15:29N 40°48' E 014°19'0 0.0
2014-Oct-11 13:05N 40°48' E 014°19'0 0.0
2014-Oct-11 12:29N 40°48' E 014°19'0 0.0
2014-Oct-11 11:29N 40°48' E 014°19'1 0.8
2014-Oct-11 10:33N 40°48' E 014°19'1412.3
2014-Oct-11 09:27N 40°36' E 014°10'1213.2
2014-Oct-11 08:34N 40°24' E 014°14'  

Dump ship's entire track history